createdAt,value
2023-03-11T00:01:06.894Z,9.28
2023-03-11T00:07:49.624Z,9.14
2023-03-11T00:14:56.505Z,8.96
2023-03-11T00:21:46.826Z,8.82
2023-03-11T00:28:49.084Z,8.81
2023-03-11T00:35:36.793Z,8.77
2023-03-11T00:49:37.435Z,8.67
2023-03-11T00:56:15.013Z,8.64
2023-03-11T01:03:13.889Z,8.60
2023-03-11T01:10:04.336Z,8.50
2023-03-11T01:16:41.442Z,8.44
2023-03-11T01:23:01.732Z,8.37
2023-03-11T01:29:51.970Z,8.28
2023-03-11T01:36:25.272Z,8.22
2023-03-11T01:43:19.416Z,8.18
2023-03-11T01:50:21.253Z,8.15
2023-03-11T01:57:23.986Z,8.15
2023-03-11T02:04:19.375Z,8.14
2023-03-11T02:10:56.601Z,8.05
2023-03-11T02:17:39.921Z,7.93
2023-03-11T02:24:34.622Z,7.78
2023-03-11T02:31:37.654Z,7.58
2023-03-11T02:38:45.541Z,7.42
2023-03-11T02:45:52.541Z,7.29
2023-03-11T02:52:55.235Z,7.10
2023-03-11T02:59:58.374Z,6.92
2023-03-11T03:06:34.925Z,6.72
2023-03-11T03:13:09.390Z,6.47
2023-03-11T03:20:03.737Z,6.19
2023-03-11T03:26:35.224Z,5.98
2023-03-11T03:33:38.144Z,5.83
2023-03-11T03:40:24.390Z,5.61
2023-03-11T03:47:20.119Z,5.40
2023-03-11T03:54:09.298Z,5.11
2023-03-11T04:00:56.157Z,4.87
2023-03-11T04:07:58.019Z,4.70
2023-03-11T04:14:54.474Z,4.46
2023-03-11T04:21:45.497Z,4.26
2023-03-11T04:28:48.348Z,4.04
2023-03-11T04:35:53.158Z,3.86
2023-03-11T04:42:41.901Z,3.70
2023-03-11T04:49:48.216Z,3.57
2023-03-11T04:56:51.393Z,3.44
2023-03-11T05:03:45.352Z,3.35
2023-03-11T05:10:43.761Z,3.18
2023-03-11T05:17:39.439Z,2.87
2023-03-11T05:24:42.241Z,2.62
2023-03-11T05:31:45.112Z,2.49
2023-03-11T05:38:48.052Z,2.39
2023-03-11T05:45:43.696Z,2.33
2023-03-11T05:52:32.054Z,2.30
2023-03-11T05:59:47.455Z,2.03
2023-03-11T06:06:56.799Z,1.71
2023-03-11T06:13:42.311Z,1.47
2023-03-11T06:20:45.295Z,1.37
2023-03-11T06:27:13.309Z,1.31
2023-03-11T06:34:08.844Z,1.45
2023-03-11T06:41:13.486Z,1.32
2023-03-11T06:47:44.458Z,1.22
2023-03-11T06:54:34.799Z,1.10
2023-03-11T07:00:47.930Z,1.10
2023-03-11T07:07:14.557Z,1.11
2023-03-11T07:13:45.594Z,1.08
2023-03-11T07:20:06.478Z,1.04
2023-03-11T07:26:52.090Z,1.03
2023-03-11T07:33:35.365Z,1.14
2023-03-11T07:54:46.761Z,1.37
2023-03-11T08:00:57.612Z,1.35
2023-03-11T08:07:33.917Z,1.32
2023-03-11T08:14:31.027Z,1.25
2023-03-11T08:21:39.443Z,1.18
2023-03-11T08:28:20.964Z,1.19
2023-03-11T08:42:45.162Z,1.31
2023-03-11T08:49:32.089Z,1.13
2023-03-11T08:56:35.099Z,1.01
2023-03-11T09:03:43.848Z,0.88
2023-03-11T09:10:30.093Z,0.75
2023-03-11T09:17:09.274Z,0.71
2023-03-11T09:24:18.908Z,0.71
2023-03-11T09:31:06.754Z,0.74
2023-03-11T09:38:07.378Z,0.74
2023-03-11T09:45:52.346Z,0.72
2023-03-11T09:52:57.754Z,0.70
2023-03-11T09:59:53.055Z,0.69
2023-03-11T10:06:58.550Z,0.71
2023-03-11T10:14:02.517Z,0.78
2023-03-11T10:20:22.238Z,0.81
2023-03-11T10:27:36.111Z,0.85
2023-03-11T10:34:24.108Z,0.94
2023-03-11T10:41:04.984Z,0.95
2023-03-11T10:47:58.806Z,0.97
2023-03-11T10:54:44.846Z,1.00
2023-03-11T11:01:40.126Z,1.05
2023-03-11T11:07:58.987Z,1.13
2023-03-11T11:13:35.385Z,1.14
2023-03-11T11:19:30.815Z,1.10
2023-03-11T11:25:03.861Z,1.09
2023-03-11T11:31:09.232Z,1.02
2023-03-11T11:36:45.565Z,0.95
2023-03-11T11:42:04.143Z,1.02
2023-03-11T11:47:53.358Z,1.05
2023-03-11T11:53:59.781Z,1.03
2023-03-11T11:59:33.537Z,0.93
2023-03-11T12:05:43.557Z,0.89
2023-03-11T12:12:35.596Z,0.83
2023-03-11T12:19:19.381Z,0.75
2023-03-11T12:24:56.606Z,0.80
2023-03-11T12:30:48.906Z,0.89
2023-03-11T12:37:22.541Z,0.97
2023-03-11T12:42:45.583Z,0.93
2023-03-11T12:49:01.541Z,0.92
2023-03-11T12:56:03.741Z,0.88
2023-03-11T13:03:13.110Z,0.79
2023-03-11T13:09:31.828Z,0.72
2023-03-11T13:15:42.449Z,0.72
2023-03-11T13:21:25.639Z,0.69
2023-03-11T13:27:27.143Z,0.63
2023-03-11T13:33:34.549Z,0.63
2023-03-11T13:39:35.027Z,0.60
2023-03-11T13:46:09.930Z,0.59
2023-03-11T13:52:36.755Z,0.66
2023-03-11T13:59:48.675Z,0.76
2023-03-11T14:06:35.654Z,0.94
2023-03-11T14:12:44.497Z,1.07
2023-03-11T14:19:20.640Z,1.19
2023-03-11T14:26:07.097Z,1.25
2023-03-11T14:33:40.064Z,1.14
2023-03-11T14:40:08.080Z,1.09
2023-03-11T14:47:04.920Z,1.04
2023-03-11T14:54:19.433Z,0.97
2023-03-11T15:00:36.013Z,0.95
2023-03-11T15:06:05.842Z,1.09
2023-03-11T15:13:13.365Z,1.23
2023-03-11T15:19:27.654Z,1.23
2023-03-11T15:24:35.993Z,1.27
2023-03-11T15:29:59.571Z,1.24
2023-03-11T15:36:04.814Z,1.13
2023-03-11T15:42:14.808Z,0.93
2023-03-11T15:49:21.461Z,0.67
2023-03-11T15:56:46.502Z,0.45
2023-03-11T16:04:00.555Z,0.33
2023-03-11T16:11:07.904Z,0.35
2023-03-11T16:18:12.307Z,0.64
2023-03-11T16:25:17.143Z,0.64
2023-03-11T16:32:07.318Z,0.55
2023-03-11T16:39:22.995Z,0.40
2023-03-11T16:46:37.716Z,0.25
2023-03-11T16:53:20.578Z,0.14
2023-03-11T17:07:37.573Z,0.08
2023-03-11T17:14:41.272Z,0.02
2023-03-11T17:21:47.821Z,-0.01
2023-03-11T17:28:51.266Z,-0.02
2023-03-11T17:35:47.688Z,-0.07
2023-03-11T17:42:40.848Z,-0.04
2023-03-11T17:49:46.667Z,-0.08
2023-03-11T17:56:53.753Z,-0.14
2023-03-11T18:04:16.122Z,-0.13
2023-03-11T18:11:04.225Z,-0.16
2023-03-11T18:18:00.736Z,-0.21
2023-03-11T18:25:10.009Z,-0.22
2023-03-11T18:32:10.315Z,-0.20
2023-03-11T18:39:19.937Z,-0.20
2023-03-11T18:45:50.245Z,-0.21
2023-03-11T18:52:24.376Z,-0.22
2023-03-11T18:59:14.479Z,-0.25
2023-03-11T19:05:54.733Z,-0.28
2023-03-11T19:12:08.056Z,-0.24
2023-03-11T19:18:32.581Z,-0.21
2023-03-11T19:25:20.571Z,-0.19
2023-03-11T19:31:38.486Z,-0.08
2023-03-11T19:38:05.208Z,0.01
2023-03-11T19:45:07.886Z,0.03
2023-03-11T19:52:18.001Z,-0.03
2023-03-11T19:58:39.387Z,-0.07
2023-03-11T20:05:04.382Z,-0.11
2023-03-11T20:11:13.759Z,-0.20
2023-03-11T20:18:20.732Z,-0.35
2023-03-11T20:25:02.078Z,-0.40
2023-03-11T20:31:12.925Z,-0.43
2023-03-11T20:37:25.114Z,-0.42
2023-03-11T20:43:27.070Z,-0.43
2023-03-11T20:49:34.892Z,-0.45
2023-03-11T20:55:56.533Z,-0.53
2023-03-11T21:03:06.065Z,-0.65
2023-03-11T21:09:40.376Z,-0.69
2023-03-11T21:15:52.816Z,-0.76
2023-03-11T21:22:00.119Z,-0.81
2023-03-11T21:27:27.860Z,-0.82
2023-03-11T21:32:54.253Z,-0.79
2023-03-11T21:38:32.067Z,-0.79
2023-03-11T21:43:58.263Z,-0.75
2023-03-11T21:49:18.485Z,-0.68
2023-03-11T21:54:24.690Z,-0.62
2023-03-11T22:00:05.871Z,-0.58
2023-03-11T22:05:49.782Z,-0.53
2023-03-11T22:11:20.925Z,-0.46
2023-03-11T22:17:39.700Z,-0.41
2023-03-11T22:23:38.797Z,-0.38
2023-03-11T22:29:21.842Z,-0.36
2023-03-11T22:36:12.567Z,-0.28
2023-03-11T22:43:19.368Z,-0.26
2023-03-11T22:50:41.810Z,-0.34
2023-03-11T22:57:45.428Z,-0.32
2023-03-11T23:03:58.675Z,-0.26
2023-03-11T23:10:28.791Z,-0.27
2023-03-11T23:16:16.354Z,-0.31
2023-03-11T23:22:18.926Z,-0.32
2023-03-11T23:29:05.641Z,-0.40
2023-03-11T23:35:25.733Z,-0.53
2023-03-11T23:41:43.206Z,-0.62
2023-03-11T23:48:00.914Z,-0.75
2023-03-11T23:54:48.862Z,-0.88
